createdAt,value
2023-02-07T00:01:03.882Z,-8.1
2023-02-07T00:05:30.628Z,-8.1
2023-02-07T00:10:32.572Z,-7.9
2023-02-07T00:15:21.417Z,-7.8
2023-02-07T00:20:46.076Z,-8.0
2023-02-07T00:25:33.420Z,-8.2
2023-02-07T00:30:22.035Z,-8.3
2023-02-07T00:35:28.237Z,-8.4
2023-02-07T00:40:17.275Z,-8.5
2023-02-07T00:45:23.355Z,-8.6
2023-02-07T00:50:29.466Z,-8.7
2023-02-07T00:55:18.486Z,-8.9
2023-02-07T01:00:48.292Z,-9.1
2023-02-07T01:05:29.880Z,-8.9
2023-02-07T01:10:18.892Z,-8.6
2023-02-07T01:15:25.000Z,-8.7
2023-02-07T01:20:49.686Z,-9.1
2023-02-07T01:25:20.483Z,-9.2
2023-02-07T01:30:26.075Z,-9.4
2023-02-07T01:35:32.088Z,-9.5
2023-02-07T01:40:42.360Z,-9.4
2023-02-07T01:45:26.925Z,-9.3
2023-02-07T01:50:32.969Z,-9.4
2023-02-07T01:55:21.950Z,-9.5
2023-02-07T02:00:52.703Z,-9.6
2023-02-07T02:05:22.916Z,-9.6
2023-02-07T02:10:23.735Z,-9.7
2023-02-07T02:15:30.119Z,-9.8
2023-02-07T02:20:33.069Z,-9.8
2023-02-07T02:25:24.635Z,-10.0
2023-02-07T02:30:31.119Z,-10.1
2023-02-07T02:35:19.092Z,-10.1
2023-02-07T02:40:45.232Z,-10.2
2023-02-07T02:45:31.203Z,-10.2
2023-02-07T02:50:20.309Z,-10.4
2023-02-07T02:55:26.269Z,-10.5
2023-02-07T03:01:15.158Z,-10.5
2023-02-07T03:05:23.587Z,-10.5
2023-02-07T03:10:26.905Z,-10.4
2023-02-07T03:15:33.086Z,-10.5
2023-02-07T03:20:44.148Z,-10.5
2023-02-07T03:25:28.029Z,-10.7
2023-02-07T03:30:17.221Z,-10.7
2023-02-07T03:35:22.582Z,-10.6
2023-02-07T03:40:47.823Z,-10.7
2023-02-07T03:45:17.659Z,-10.8
2023-02-07T03:50:23.807Z,-10.8
2023-02-07T03:55:29.720Z,-10.9
2023-02-07T04:00:54.317Z,-11.1
2023-02-07T04:05:30.360Z,-11.1
2023-02-07T04:10:31.532Z,-11.2
2023-02-07T04:15:22.947Z,-11.3
2023-02-07T04:20:45.727Z,-11.4
2023-02-07T04:25:32.358Z,-11.5
2023-02-07T04:30:21.468Z,-11.6
2023-02-07T04:35:26.967Z,-11.5
2023-02-07T04:40:56.724Z,-11.5
2023-02-07T04:45:22.056Z,-11.5
2023-02-07T04:50:28.126Z,-11.5
2023-02-07T04:55:17.179Z,-11.6
2023-02-07T05:00:58.370Z,-11.7
2023-02-07T05:05:30.925Z,-11.6
2023-02-07T05:10:17.918Z,-11.7
2023-02-07T05:15:24.206Z,-11.8
2023-02-07T05:20:51.994Z,-11.9
2023-02-07T05:25:18.818Z,-11.6
2023-02-07T05:30:24.811Z,-11.5
2023-02-07T05:35:31.236Z,-11.4
2023-02-07T05:40:41.363Z,-11.5
2023-02-07T05:45:26.356Z,-11.8
2023-02-07T05:50:32.774Z,-12.0
2023-02-07T05:55:21.396Z,-12.0
2023-02-07T06:00:59.306Z,-12.0
2023-02-07T06:05:39.443Z,-12.0
2023-02-07T06:10:26.785Z,-12.1
2023-02-07T06:15:28.320Z,-12.1
2023-02-07T06:20:17.636Z,-12.0
2023-02-07T06:25:23.410Z,-12.1
2023-02-07T06:30:29.569Z,-12.1
2023-02-07T06:35:17.861Z,-12.1
2023-02-07T06:40:46.858Z,-12.1
2023-02-07T06:45:29.858Z,-12.3
2023-02-07T06:50:19.522Z,-12.3
2023-02-07T06:55:25.220Z,-12.3
2023-02-07T07:01:12.468Z,-12.2
2023-02-07T07:05:20.645Z,-12.2
2023-02-07T07:10:26.993Z,-12.2
2023-02-07T07:15:32.646Z,-11.8
2023-02-07T07:20:41.209Z,-11.7
2023-02-07T07:25:27.633Z,-10.9
2023-02-07T07:30:33.929Z,-9.6
2023-02-07T07:35:22.135Z,-9.3
2023-02-07T07:40:47.563Z,-9.4
2023-02-07T07:45:17.122Z,-9.0
2023-02-07T07:50:23.096Z,-8.5
2023-02-07T07:55:29.176Z,-8.6
2023-02-07T08:00:38.172Z,-8.4
2023-02-07T08:05:28.710Z,-8.5
2023-02-07T08:10:30.422Z,-7.2
2023-02-07T08:15:23.323Z,-6.4
2023-02-07T08:20:25.046Z,-5.1
2023-02-07T08:25:31.333Z,-5.0
2023-02-07T08:30:19.804Z,-4.9
2023-02-07T08:35:26.258Z,-4.6
2023-02-07T08:40:52.590Z,-3.7
2023-02-07T08:45:21.329Z,-2.6
2023-02-07T08:50:27.375Z,-3.5
2023-02-07T08:55:33.476Z,-4.3
2023-02-07T09:00:24.244Z,-4.6
2023-02-07T09:05:27.809Z,-4.4
2023-02-07T09:15:22.918Z,-3.7
2023-02-07T09:30:24.486Z,-2.6
2023-02-07T09:35:29.644Z,-2.7
2023-02-07T09:40:38.236Z,-2.6
2023-02-07T09:45:24.767Z,-2.1
2023-02-07T09:50:30.872Z,-2.5
2023-02-07T09:55:19.922Z,-3.3
2023-02-07T10:00:58.495Z,-3.2
2023-02-07T10:05:38.909Z,-3.2
2023-02-07T10:10:21.908Z,-3.3
2023-02-07T10:15:28.228Z,-3.3
2023-02-07T10:20:52.232Z,-3.1
2023-02-07T10:25:22.482Z,-3.1
2023-02-07T10:30:28.565Z,-2.7
2023-02-07T10:35:17.363Z,-2.5
2023-02-07T10:40:43.851Z,-2.9
2023-02-07T10:45:29.523Z,-2.5
2023-02-07T10:50:24.800Z,-2.4
2023-02-07T10:55:24.610Z,-2.3
2023-02-07T11:01:05.933Z,-2.3
2023-02-07T11:05:19.005Z,-2.2
2023-02-07T11:10:25.460Z,-1.9
2023-02-07T11:15:31.228Z,-1.7
2023-02-07T11:20:43.294Z,-1.7
2023-02-07T11:25:26.742Z,-1.5
2023-02-07T11:30:32.617Z,-1.9
2023-02-07T11:35:21.003Z,-1.8
2023-02-07T11:40:45.977Z,-1.9
2023-02-07T11:45:32.763Z,-1.6
2023-02-07T11:50:21.860Z,-1.2
2023-02-07T11:55:27.845Z,-1.2
2023-02-07T12:01:16.632Z,-1.1
2023-02-07T12:05:28.903Z,-1.1
2023-02-07T12:10:30.279Z,-1.0
2023-02-07T12:15:19.200Z,-0.9
2023-02-07T12:20:48.874Z,-0.6
2023-02-07T12:25:30.841Z,-0.7
2023-02-07T12:30:19.589Z,-0.8
2023-02-07T12:35:25.428Z,-0.5
2023-02-07T12:40:57.010Z,-0.4
2023-02-07T12:45:20.533Z,-0.3
2023-02-07T12:50:26.560Z,-0.1
2023-02-07T12:55:32.577Z,0.2
2023-02-07T13:01:05.129Z,0.4
2023-02-07T13:05:27.009Z,0.2
2023-02-07T13:10:33.051Z,0.6
2023-02-07T13:15:22.208Z,0.7
2023-02-07T13:20:50.413Z,0.7
2023-02-07T13:25:17.095Z,0.8
2023-02-07T13:30:23.251Z,1.0
2023-02-07T13:35:29.200Z,1.3
2023-02-07T13:40:37.383Z,1.8
2023-02-07T13:45:23.959Z,2.1
2023-02-07T13:50:29.819Z,2.0
2023-02-07T13:55:18.959Z,2.0
2023-02-07T14:01:37.726Z,2.0
2023-02-07T14:05:36.599Z,2.4
2023-02-07T14:10:20.918Z,2.6
2023-02-07T14:15:27.167Z,3.5
2023-02-07T14:20:58.133Z,3.1
2023-02-07T14:25:21.480Z,3.0
2023-02-07T14:30:27.686Z,3.4
2023-02-07T14:35:33.155Z,2.7
2023-02-07T14:40:44.119Z,2.5
2023-02-07T14:45:28.336Z,2.5
2023-02-07T14:50:17.361Z,2.4
2023-02-07T14:55:23.370Z,2.0
2023-02-07T15:01:00.838Z,1.8
2023-02-07T15:05:18.470Z,1.8
2023-02-07T15:10:23.956Z,1.9
2023-02-07T15:15:29.914Z,1.7
2023-02-07T15:20:20.624Z,1.3
2023-02-07T15:25:24.970Z,1.0
2023-02-07T15:30:31.040Z,0.7
2023-02-07T15:35:20.377Z,0.4
2023-02-07T15:40:42.298Z,0.3
2023-02-07T15:45:32.634Z,0.1
2023-02-07T15:50:21.544Z,-0.3
2023-02-07T15:55:27.637Z,-0.8
2023-02-07T16:01:06.175Z,-1.0
2023-02-07T16:05:27.823Z,-1.3
2023-02-07T16:10:28.685Z,-1.5
2023-02-07T16:15:21.342Z,-1.8
2023-02-07T16:20:43.977Z,-1.9
2023-02-07T16:25:34.215Z,-2.1
2023-02-07T16:30:18.333Z,-2.3
2023-02-07T16:35:24.047Z,-2.6
2023-02-07T16:40:55.980Z,-2.8
2023-02-07T16:45:19.221Z,-3.0
2023-02-07T16:50:25.166Z,-3.1
2023-02-07T16:55:31.439Z,-3.2
2023-02-07T17:00:57.250Z,-3.3
2023-02-07T17:05:26.915Z,-3.4
2023-02-07T17:10:32.618Z,-3.6
2023-02-07T17:15:21.458Z,-3.6
2023-02-07T17:20:52.283Z,-3.7
2023-02-07T17:25:33.006Z,-3.9
2023-02-07T17:30:22.135Z,-4.0
2023-02-07T17:35:28.459Z,-4.1
2023-02-07T17:40:36.522Z,-4.3
2023-02-07T17:45:23.738Z,-4.4
2023-02-07T17:50:29.720Z,-4.6
2023-02-07T17:55:18.786Z,-4.7
2023-02-07T18:01:56.008Z,-4.8
2023-02-07T18:05:35.150Z,-5.0
2023-02-07T18:10:19.672Z,-5.0
2023-02-07T18:15:25.912Z,-5.2
2023-02-07T18:20:51.853Z,-5.4
2023-02-07T18:25:20.308Z,-5.6
2023-02-07T18:30:26.902Z,-5.5
2023-02-07T18:35:31.952Z,-5.7
2023-02-07T18:40:40.079Z,-6.0
2023-02-07T18:45:26.988Z,-6.1
2023-02-07T18:50:33.062Z,-6.2
2023-02-07T18:55:22.085Z,-6.3
2023-02-07T19:01:09.822Z,-6.4
2023-02-07T19:05:22.644Z,-6.5
2023-02-07T19:10:23.720Z,-6.7
2023-02-07T19:15:29.621Z,-6.9
2023-02-07T19:20:42.412Z,-7.0
2023-02-07T19:25:24.846Z,-7.2
2023-02-07T19:30:30.833Z,-7.3
2023-02-07T19:35:19.147Z,-7.3
2023-02-07T19:40:46.434Z,-7.4
2023-02-07T19:45:31.208Z,-7.4
2023-02-07T19:50:20.368Z,-7.7
2023-02-07T19:55:26.393Z,-7.7
2023-02-07T20:01:09.007Z,-7.8
2023-02-07T20:05:27.265Z,-7.9
2023-02-07T20:10:27.362Z,-8.0
2023-02-07T20:15:33.886Z,-8.1
2023-02-07T20:20:40.220Z,-8.3
2023-02-07T20:25:28.947Z,-8.4
2023-02-07T20:30:16.933Z,-8.5
2023-02-07T20:35:23.095Z,-8.5
2023-02-07T20:40:48.979Z,-8.5
2023-02-07T20:45:17.920Z,-8.6
2023-02-07T20:50:24.051Z,-8.6
2023-02-07T20:55:30.060Z,-8.7
2023-02-07T21:00:47.494Z,-8.9
2023-02-07T21:05:25.360Z,-9.1
2023-02-07T21:10:31.582Z,-9.1
2023-02-07T21:15:20.513Z,-9.2
2023-02-07T21:20:47.472Z,-9.3
2023-02-07T21:25:32.837Z,-9.4
2023-02-07T21:30:21.758Z,-9.5
2023-02-07T21:35:27.387Z,-9.5
2023-02-07T21:40:54.961Z,-9.5
2023-02-07T21:45:22.622Z,-9.6
2023-02-07T21:50:28.498Z,-9.7
2023-02-07T21:55:17.826Z,-9.8
2023-02-07T22:00:57.536Z,-9.8
2023-02-07T22:05:34.670Z,-9.8
2023-02-07T22:10:22.127Z,-9.9
2023-02-07T22:15:24.431Z,-10.0
2023-02-07T22:20:54.880Z,-10.2
2023-02-07T22:25:19.257Z,-10.0
2023-02-07T22:30:25.436Z,-10.1
2023-02-07T22:35:31.078Z,-10.2
2023-02-07T22:40:40.977Z,-10.2
2023-02-07T22:45:25.779Z,-10.3
2023-02-07T22:50:32.221Z,-10.3
2023-02-07T22:55:20.972Z,-10.3
2023-02-07T23:01:04.083Z,-10.5
2023-02-07T23:05:33.324Z,-10.5
2023-02-07T23:10:22.388Z,-10.5
2023-02-07T23:15:28.749Z,-10.6
2023-02-07T23:20:33.696Z,-10.6
2023-02-07T23:25:23.498Z,-10.7
2023-02-07T23:30:29.653Z,-10.7
2023-02-07T23:35:17.993Z,-10.7
2023-02-07T23:40:45.091Z,-10.7
2023-02-07T23:45:30.156Z,-10.7
2023-02-07T23:50:19.331Z,-10.9
2023-02-07T23:55:25.450Z,-11.0
